sensor_id;sensor_type;location;lat;lon;timestamp;P1;durP1;ratioP1;P2;durP2;ratioP2
69463;SDS011;56665;41.106;16.688;2023-12-28T00:00:10;22.63;;;8.55;;
69463;SDS011;56665;41.106;16.688;2023-12-28T00:03:14;25.88;;;9.60;;
69463;SDS011;56665;41.106;16.688;2023-12-28T00:06:18;26.63;;;8.67;;
69463;SDS011;56665;41.106;16.688;2023-12-28T00:09:22;25.27;;;8.32;;
69463;SDS011;56665;41.106;16.688;2023-12-28T00:12:26;20.98;;;7.72;;
69463;SDS011;56665;41.106;16.688;2023-12-28T00:15:30;19.00;;;7.18;;
69463;SDS011;56665;41.106;16.688;2023-12-28T00:18:33;21.55;;;7.05;;
69463;SDS011;56665;41.106;16.688;2023-12-28T00:21:37;17.23;;;6.90;;
69463;SDS011;56665;41.106;16.688;2023-12-28T00:24:41;18.15;;;7.03;;
69463;SDS011;56665;41.106;16.688;2023-12-28T00:27:45;18.00;;;6.50;;
69463;SDS011;56665;41.106;16.688;2023-12-28T00:30:49;15.25;;;6.00;;
69463;SDS011;56665;41.106;16.688;2023-12-28T00:33:52;17.15;;;6.13;;
69463;SDS011;56665;41.106;16.688;2023-12-28T00:36:56;20.53;;;5.93;;
69463;SDS011;56665;41.106;16.688;2023-12-28T00:40:00;14.82;;;5.78;;
69463;SDS011;56665;41.106;16.688;2023-12-28T00:43:04;14.85;;;5.68;;
69463;SDS011;56665;41.106;16.688;2023-12-28T00:46:08;23.73;;;7.07;;
69463;SDS011;56665;41.106;16.688;2023-12-28T00:49:11;18.85;;;7.25;;
69463;SDS011;56665;41.106;16.688;2023-12-28T00:52:15;20.93;;;7.57;;
69463;SDS011;56665;41.106;16.688;2023-12-28T00:55:19;24.83;;;7.85;;
69463;SDS011;56665;41.106;16.688;2023-12-28T00:58:23;22.08;;;7.95;;
69463;SDS011;56665;41.106;16.688;2023-12-28T01:01:26;23.92;;;7.82;;
69463;SDS011;56665;41.106;16.688;2023-12-28T01:04:31;20.73;;;7.72;;
69463;SDS011;56665;41.106;16.688;2023-12-28T01:07:34;23.13;;;7.60;;
69463;SDS011;56665;41.106;16.688;2023-12-28T01:10:38;23.27;;;8.38;;
69463;SDS011;56665;41.106;16.688;2023-12-28T01:13:42;25.75;;;9.15;;
69463;SDS011;56665;41.106;16.688;2023-12-28T01:16:45;27.38;;;7.88;;
69463;SDS011;56665;41.106;16.688;2023-12-28T01:19:49;23.92;;;8.82;;
69463;SDS011;56665;41.106;16.688;2023-12-28T01:22:53;27.77;;;9.43;;
69463;SDS011;56665;41.106;16.688;2023-12-28T01:25:57;33.53;;;11.18;;
69463;SDS011;56665;41.106;16.688;2023-12-28T01:29:02;31.85;;;11.15;;
69463;SDS011;56665;41.106;16.688;2023-12-28T01:32:07;39.28;;;11.85;;
69463;SDS011;56665;41.106;16.688;2023-12-28T01:35:11;36.83;;;12.30;;
69463;SDS011;56665;41.106;16.688;2023-12-28T01:38:15;35.10;;;11.53;;
69463;SDS011;56665;41.106;16.688;2023-12-28T01:41:18;41.33;;;13.30;;
69463;SDS011;56665;41.106;16.688;2023-12-28T01:44:22;51.63;;;14.02;;
69463;SDS011;56665;41.106;16.688;2023-12-28T01:47:26;42.35;;;13.02;;
69463;SDS011;56665;41.106;16.688;2023-12-28T01:50:31;42.10;;;14.35;;
69463;SDS011;56665;41.106;16.688;2023-12-28T01:53:35;44.03;;;14.30;;
69463;SDS011;56665;41.106;16.688;2023-12-28T01:56:39;43.22;;;12.73;;
69463;SDS011;56665;41.106;16.688;2023-12-28T01:59:44;40.13;;;13.48;;
69463;SDS011;56665;41.106;16.688;2023-12-28T02:02:48;45.22;;;12.88;;
69463;SDS011;56665;41.106;16.688;2023-12-28T02:05:53;37.88;;;11.93;;
69463;SDS011;56665;41.106;16.688;2023-12-28T02:08:57;40.07;;;11.50;;
69463;SDS011;56665;41.106;16.688;2023-12-28T02:12:00;34.15;;;10.10;;
69463;SDS011;56665;41.106;16.688;2023-12-28T02:15:04;32.92;;;9.70;;
69463;SDS011;56665;41.106;16.688;2023-12-28T02:21:21;30.40;;;10.52;;
69463;SDS011;56665;41.106;16.688;2023-12-28T02:24:26;30.67;;;9.67;;
69463;SDS011;56665;41.106;16.688;2023-12-28T02:27:29;33.55;;;9.52;;
69463;SDS011;56665;41.106;16.688;2023-12-28T02:30:35;33.05;;;10.30;;
69463;SDS011;56665;41.106;16.688;2023-12-28T02:33:43;31.77;;;9.35;;
69463;SDS011;56665;41.106;16.688;2023-12-28T02:37:02;31.40;;;9.75;;
69463;SDS011;56665;41.106;16.688;2023-12-28T02:40:06;25.73;;;8.93;;
69463;SDS011;56665;41.106;16.688;2023-12-28T02:43:11;32.83;;;10.13;;
69463;SDS011;56665;41.106;16.688;2023-12-28T02:46:15;27.40;;;10.20;;
69463;SDS011;56665;41.106;16.688;2023-12-28T02:49:18;34.03;;;9.85;;
69463;SDS011;56665;41.106;16.688;2023-12-28T02:52:22;32.40;;;9.27;;
69463;SDS011;56665;41.106;16.688;2023-12-28T02:55:26;31.07;;;9.90;;
69463;SDS011;56665;41.106;16.688;2023-12-28T02:58:29;35.78;;;9.55;;
69463;SDS011;56665;41.106;16.688;2023-12-28T03:01:33;26.00;;;9.48;;
69463;SDS011;56665;41.106;16.688;2023-12-28T03:04:37;27.50;;;9.20;;
69463;SDS011;56665;41.106;16.688;2023-12-28T03:07:41;26.55;;;8.18;;
69463;SDS011;56665;41.106;16.688;2023-12-28T03:10:45;24.37;;;6.93;;
69463;SDS011;56665;41.106;16.688;2023-12-28T03:13:49;26.52;;;7.47;;
69463;SDS011;56665;41.106;16.688;2023-12-28T03:16:53;22.27;;;7.30;;
69463;SDS011;56665;41.106;16.688;2023-12-28T03:19:57;22.50;;;6.88;;
69463;SDS011;56665;41.106;16.688;2023-12-28T03:23:02;19.35;;;6.28;;
69463;SDS011;56665;41.106;16.688;2023-12-28T03:26:06;22.23;;;7.00;;
69463;SDS011;56665;41.106;16.688;2023-12-28T03:29:11;20.65;;;6.65;;
69463;SDS011;56665;41.106;16.688;2023-12-28T03:32:15;25.73;;;7.82;;
69463;SDS011;56665;41.106;16.688;2023-12-28T03:35:20;21.65;;;6.90;;
69463;SDS011;56665;41.106;16.688;2023-12-28T03:38:23;22.08;;;7.47;;
69463;SDS011;56665;41.106;16.688;2023-12-28T03:41:27;27.63;;;7.53;;
69463;SDS011;56665;41.106;16.688;2023-12-28T03:44:31;24.92;;;7.15;;
69463;SDS011;56665;41.106;16.688;2023-12-28T03:47:34;22.17;;;7.30;;
69463;SDS011;56665;41.106;16.688;2023-12-28T03:50:38;19.55;;;6.63;;
69463;SDS011;56665;41.106;16.688;2023-12-28T03:53:43;20.05;;;6.82;;
69463;SDS011;56665;41.106;16.688;2023-12-28T03:56:47;18.20;;;5.93;;
69463;SDS011;56665;41.106;16.688;2023-12-28T03:59:50;21.77;;;6.00;;
69463;SDS011;56665;41.106;16.688;2023-12-28T04:02:54;15.18;;;6.10;;
69463;SDS011;56665;41.106;16.688;2023-12-28T04:05:58;16.45;;;5.97;;
69463;SDS011;56665;41.106;16.688;2023-12-28T04:09:01;13.35;;;5.20;;
69463;SDS011;56665;41.106;16.688;2023-12-28T04:12:07;15.93;;;5.40;;
69463;SDS011;56665;41.106;16.688;2023-12-28T04:15:10;16.30;;;5.30;;
69463;SDS011;56665;41.106;16.688;2023-12-28T04:18:14;20.52;;;5.47;;
69463;SDS011;56665;41.106;16.688;2023-12-28T04:21:18;16.80;;;5.13;;
69463;SDS011;56665;41.106;16.688;2023-12-28T04:24:21;17.42;;;6.15;;
69463;SDS011;56665;41.106;16.688;2023-12-28T04:27:25;13.67;;;5.03;;
69463;SDS011;56665;41.106;16.688;2023-12-28T04:30:29;16.42;;;5.28;;
69463;SDS011;56665;41.106;16.688;2023-12-28T04:33:33;17.27;;;5.78;;
69463;SDS011;56665;41.106;16.688;2023-12-28T04:36:41;12.25;;;4.60;;
69463;SDS011;56665;41.106;16.688;2023-12-28T04:39:46;13.65;;;4.10;;
69463;SDS011;56665;41.106;16.688;2023-12-28T04:42:49;11.57;;;3.90;;
69463;SDS011;56665;41.106;16.688;2023-12-28T04:45:53;13.20;;;4.25;;
69463;SDS011;56665;41.106;16.688;2023-12-28T04:48:57;11.77;;;4.63;;
69463;SDS011;56665;41.106;16.688;2023-12-28T04:52:01;8.63;;;3.58;;
69463;SDS011;56665;41.106;16.688;2023-12-28T04:55:05;9.70;;;4.07;;
69463;SDS011;56665;41.106;16.688;2023-12-28T04:58:10;11.87;;;3.80;;
69463;SDS011;56665;41.106;16.688;2023-12-28T05:01:14;9.77;;;3.95;;
69463;SDS011;56665;41.106;16.688;2023-12-28T05:04:18;10.77;;;4.22;;
69463;SDS011;56665;41.106;16.688;2023-12-28T05:07:22;8.82;;;3.20;;
69463;SDS011;56665;41.106;16.688;2023-12-28T05:10:25;11.90;;;4.30;;
69463;SDS011;56665;41.106;16.688;2023-12-28T05:13:30;9.03;;;3.40;;
69463;SDS011;56665;41.106;16.688;2023-12-28T05:16:35;10.38;;;3.75;;
69463;SDS011;56665;41.106;16.688;2023-12-28T05:19:39;11.07;;;3.60;;
69463;SDS011;56665;41.106;16.688;2023-12-28T05:22:42;9.32;;;3.60;;
69463;SDS011;56665;41.106;16.688;2023-12-28T05:25:46;6.53;;;3.03;;
69463;SDS011;56665;41.106;16.688;2023-12-28T05:28:51;11.63;;;4.03;;
69463;SDS011;56665;41.106;16.688;2023-12-28T05:31:55;13.25;;;5.90;;
69463;SDS011;56665;41.106;16.688;2023-12-28T05:34:58;22.77;;;11.45;;
69463;SDS011;56665;41.106;16.688;2023-12-28T05:38:02;32.70;;;17.20;;
69463;SDS011;56665;41.106;16.688;2023-12-28T05:41:06;32.95;;;16.85;;
69463;SDS011;56665;41.106;16.688;2023-12-28T05:44:10;35.80;;;18.03;;
69463;SDS011;56665;41.106;16.688;2023-12-28T05:47:13;46.58;;;21.65;;
69463;SDS011;56665;41.106;16.688;2023-12-28T05:50:17;46.35;;;22.63;;
69463;SDS011;56665;41.106;16.688;2023-12-28T05:53:21;27.30;;;13.63;;
69463;SDS011;56665;41.106;16.688;2023-12-28T05:56:25;15.45;;;8.30;;
69463;SDS011;56665;41.106;16.688;2023-12-28T05:59:29;13.20;;;6.40;;
69463;SDS011;56665;41.106;16.688;2023-12-28T06:02:33;13.30;;;6.38;;
69463;SDS011;56665;41.106;16.688;2023-12-28T06:05:36;13.57;;;6.28;;
69463;SDS011;56665;41.106;16.688;2023-12-28T06:08:40;20.83;;;10.13;;
69463;SDS011;56665;41.106;16.688;2023-12-28T06:11:44;24.00;;;11.73;;
69463;SDS011;56665;41.106;16.688;2023-12-28T06:14:48;23.40;;;11.47;;
69463;SDS011;56665;41.106;16.688;2023-12-28T06:17:51;25.90;;;12.40;;
69463;SDS011;56665;41.106;16.688;2023-12-28T06:20:55;25.58;;;14.23;;
69463;SDS011;56665;41.106;16.688;2023-12-28T06:23:59;25.00;;;13.63;;
69463;SDS011;56665;41.106;16.688;2023-12-28T06:27:03;24.73;;;13.25;;
69463;SDS011;56665;41.106;16.688;2023-12-28T06:30:06;22.43;;;11.90;;
69463;SDS011;56665;41.106;16.688;2023-12-28T06:33:11;24.30;;;12.00;;
69463;SDS011;56665;41.106;16.688;2023-12-28T06:36:16;23.17;;;12.32;;
69463;SDS011;56665;41.106;16.688;2023-12-28T06:39:21;24.58;;;12.50;;
69463;SDS011;56665;41.106;16.688;2023-12-28T06:42:25;26.20;;;12.48;;
69463;SDS011;56665;41.106;16.688;2023-12-28T06:45:28;23.47;;;10.87;;
69463;SDS011;56665;41.106;16.688;2023-12-28T06:48:32;20.42;;;10.20;;
69463;SDS011;56665;41.106;16.688;2023-12-28T06:51:36;20.75;;;9.93;;
69463;SDS011;56665;41.106;16.688;2023-12-28T06:54:40;19.38;;;9.73;;
69463;SDS011;56665;41.106;16.688;2023-12-28T06:57:44;20.08;;;9.20;;
69463;SDS011;56665;41.106;16.688;2023-12-28T07:00:47;17.47;;;8.70;;
69463;SDS011;56665;41.106;16.688;2023-12-28T07:03:51;19.80;;;9.05;;
69463;SDS011;56665;41.106;16.688;2023-12-28T07:06:55;21.70;;;9.27;;
69463;SDS011;56665;41.106;16.688;2023-12-28T07:09:59;20.17;;;8.88;;
69463;SDS011;56665;41.106;16.688;2023-12-28T07:13:02;21.15;;;9.07;;
69463;SDS011;56665;41.106;16.688;2023-12-28T07:16:06;22.43;;;9.60;;
69463;SDS011;56665;41.106;16.688;2023-12-28T07:19:11;22.70;;;10.68;;
69463;SDS011;56665;41.106;16.688;2023-12-28T07:22:14;30.80;;;13.45;;
69463;SDS011;56665;41.106;16.688;2023-12-28T07:25:18;41.50;;;18.85;;
69463;SDS011;56665;41.106;16.688;2023-12-28T07:28:22;45.67;;;21.17;;
69463;SDS011;56665;41.106;16.688;2023-12-28T07:31:26;45.03;;;18.97;;
69463;SDS011;56665;41.106;16.688;2023-12-28T07:34:30;31.35;;;14.18;;
69463;SDS011;56665;41.106;16.688;2023-12-28T07:37:34;31.13;;;11.75;;
69463;SDS011;56665;41.106;16.688;2023-12-28T10:01:07;11.25;;;5.93;;
69463;SDS011;56665;41.106;16.688;2023-12-28T10:04:13;10.27;;;6.05;;
69463;SDS011;56665;41.106;16.688;2023-12-28T10:07:18;12.75;;;6.30;;
69463;SDS011;56665;41.106;16.688;2023-12-28T10:10:22;11.65;;;5.80;;
69463;SDS011;56665;41.106;16.688;2023-12-28T10:13:26;13.17;;;6.70;;
69463;SDS011;56665;41.106;16.688;2023-12-28T10:16:30;10.13;;;5.50;;
69463;SDS011;56665;41.106;16.688;2023-12-28T10:19:33;9.40;;;4.97;;
69463;SDS011;56665;41.106;16.688;2023-12-28T10:22:37;10.18;;;4.50;;
69463;SDS011;56665;41.106;16.688;2023-12-28T10:25:41;10.13;;;4.63;;
69463;SDS011;56665;41.106;16.688;2023-12-28T10:28:46;9.53;;;4.70;;
69463;SDS011;56665;41.106;16.688;2023-12-28T10:31:50;7.75;;;4.53;;
69463;SDS011;56665;41.106;16.688;2023-12-28T10:34:54;10.80;;;5.75;;
69463;SDS011;56665;41.106;16.688;2023-12-28T10:38:01;12.70;;;7.90;;
69463;SDS011;56665;41.106;16.688;2023-12-28T10:41:08;13.35;;;8.32;;
69463;SDS011;56665;41.106;16.688;2023-12-28T10:44:13;13.93;;;6.80;;
69463;SDS011;56665;41.106;16.688;2023-12-28T10:47:22;13.43;;;8.13;;
69463;SDS011;56665;41.106;16.688;2023-12-28T10:50:29;13.80;;;8.05;;
69463;SDS011;56665;41.106;16.688;2023-12-28T10:53:53;17.45;;;10.07;;
69463;SDS011;56665;41.106;16.688;2023-12-28T10:57:09;18.17;;;9.27;;
69463;SDS011;56665;41.106;16.688;2023-12-28T11:00:21;16.73;;;7.53;;
69463;SDS011;56665;41.106;16.688;2023-12-28T11:03:30;16.63;;;8.27;;
69463;SDS011;56665;41.106;16.688;2023-12-28T11:06:37;13.10;;;7.53;;
69463;SDS011;56665;41.106;16.688;2023-12-28T11:09:42;14.02;;;7.18;;
69463;SDS011;56665;41.106;16.688;2023-12-28T11:12:45;11.00;;;6.45;;
69463;SDS011;56665;41.106;16.688;2023-12-28T11:15:50;12.87;;;7.20;;
69463;SDS011;56665;41.106;16.688;2023-12-28T11:18:54;11.68;;;6.35;;
69463;SDS011;56665;41.106;16.688;2023-12-28T11:22:01;11.57;;;5.68;;
69463;SDS011;56665;41.106;16.688;2023-12-28T11:25:06;12.70;;;6.88;;
69463;SDS011;56665;41.106;16.688;2023-12-28T11:28:10;12.02;;;5.93;;
69463;SDS011;56665;41.106;16.688;2023-12-28T11:31:14;9.67;;;5.30;;
69463;SDS011;56665;41.106;16.688;2023-12-28T11:34:18;11.73;;;8.15;;
69463;SDS011;56665;41.106;16.688;2023-12-28T11:37:22;14.82;;;7.07;;
69463;SDS011;56665;41.106;16.688;2023-12-28T11:40:29;14.48;;;7.10;;
69463;SDS011;56665;41.106;16.688;2023-12-28T11:43:34;17.40;;;11.10;;
69463;SDS011;56665;41.106;16.688;2023-12-28T11:46:39;16.37;;;8.73;;
69463;SDS011;56665;41.106;16.688;2023-12-28T11:49:42;11.77;;;7.18;;
69463;SDS011;56665;41.106;16.688;2023-12-28T11:52:50;13.27;;;7.00;;
69463;SDS011;56665;41.106;16.688;2023-12-28T11:56:00;11.73;;;6.68;;
69463;SDS011;56665;41.106;16.688;2023-12-28T11:59:08;13.93;;;7.25;;
69463;SDS011;56665;41.106;16.688;2023-12-28T12:02:11;14.30;;;6.13;;
69463;SDS011;56665;41.106;16.688;2023-12-28T12:05:16;14.90;;;6.25;;
69463;SDS011;56665;41.106;16.688;2023-12-28T12:08:20;12.18;;;6.70;;
69463;SDS011;56665;41.106;16.688;2023-12-28T12:11:23;11.10;;;6.70;;
69463;SDS011;56665;41.106;16.688;2023-12-28T12:14:28;12.05;;;5.78;;
69463;SDS011;56665;41.106;16.688;2023-12-28T12:17:32;15.40;;;5.90;;
69463;SDS011;56665;41.106;16.688;2023-12-28T12:20:36;11.43;;;6.38;;
69463;SDS011;56665;41.106;16.688;2023-12-28T12:23:42;10.32;;;6.75;;
69463;SDS011;56665;41.106;16.688;2023-12-28T12:26:46;17.40;;;6.88;;
69463;SDS011;56665;41.106;16.688;2023-12-28T12:29:50;9.85;;;5.63;;
69463;SDS011;56665;41.106;16.688;2023-12-28T12:32:53;9.13;;;5.20;;
69463;SDS011;56665;41.106;16.688;2023-12-28T12:35:57;21.40;;;12.30;;
69463;SDS011;56665;41.106;16.688;2023-12-28T12:39:01;18.13;;;10.88;;
69463;SDS011;56665;41.106;16.688;2023-12-28T12:42:05;16.40;;;7.95;;
69463;SDS011;56665;41.106;16.688;2023-12-28T12:45:10;14.25;;;7.72;;
69463;SDS011;56665;41.106;16.688;2023-12-28T12:48:13;21.23;;;14.07;;
69463;SDS011;56665;41.106;16.688;2023-12-28T12:51:17;15.80;;;9.50;;
69463;SDS011;56665;41.106;16.688;2023-12-28T12:54:21;12.23;;;6.22;;
69463;SDS011;56665;41.106;16.688;2023-12-28T12:57:25;16.65;;;8.35;;
69463;SDS011;56665;41.106;16.688;2023-12-28T13:00:30;17.75;;;11.10;;
69463;SDS011;56665;41.106;16.688;2023-12-28T13:03:33;12.10;;;6.03;;
69463;SDS011;56665;41.106;16.688;2023-12-28T13:06:38;8.45;;;5.25;;
69463;SDS011;56665;41.106;16.688;2023-12-28T13:09:42;8.60;;;4.75;;
69463;SDS011;56665;41.106;16.688;2023-12-28T13:12:46;7.07;;;4.82;;
69463;SDS011;56665;41.106;16.688;2023-12-28T13:15:49;13.02;;;6.68;;
69463;SDS011;56665;41.106;16.688;2023-12-28T13:18:53;15.53;;;6.87;;
69463;SDS011;56665;41.106;16.688;2023-12-28T13:21:57;17.17;;;9.75;;
69463;SDS011;56665;41.106;16.688;2023-12-28T13:25:01;19.38;;;10.88;;
69463;SDS011;56665;41.106;16.688;2023-12-28T13:28:06;15.10;;;7.25;;
69463;SDS011;56665;41.106;16.688;2023-12-28T13:31:11;9.88;;;5.35;;
69463;SDS011;56665;41.106;16.688;2023-12-28T13:34:16;11.23;;;6.23;;
69463;SDS011;56665;41.106;16.688;2023-12-28T13:37:21;14.82;;;8.10;;
69463;SDS011;56665;41.106;16.688;2023-12-28T13:40:25;14.77;;;9.23;;
69463;SDS011;56665;41.106;16.688;2023-12-28T13:43:29;20.33;;;11.52;;
69463;SDS011;56665;41.106;16.688;2023-12-28T13:46:33;16.95;;;10.93;;
69463;SDS011;56665;41.106;16.688;2023-12-28T13:49:37;14.30;;;7.27;;
69463;SDS011;56665;41.106;16.688;2023-12-28T13:52:40;10.88;;;7.05;;
69463;SDS011;56665;41.106;16.688;2023-12-28T13:55:44;14.00;;;7.07;;
69463;SDS011;56665;41.106;16.688;2023-12-28T13:58:48;18.25;;;12.73;;
69463;SDS011;56665;41.106;16.688;2023-12-28T14:01:52;13.63;;;9.45;;
69463;SDS011;56665;41.106;16.688;2023-12-28T14:04:56;19.83;;;10.23;;
69463;SDS011;56665;41.106;16.688;2023-12-28T14:08:00;17.35;;;9.95;;
69463;SDS011;56665;41.106;16.688;2023-12-28T14:11:04;35.80;;;19.90;;
69463;SDS011;56665;41.106;16.688;2023-12-28T14:14:08;32.75;;;18.23;;
69463;SDS011;56665;41.106;16.688;2023-12-28T14:17:11;27.02;;;11.40;;
69463;SDS011;56665;41.106;16.688;2023-12-28T14:20:15;21.83;;;10.33;;
69463;SDS011;56665;41.106;16.688;2023-12-28T14:23:21;25.70;;;13.02;;
69463;SDS011;56665;41.106;16.688;2023-12-28T14:26:24;39.30;;;20.33;;
69463;SDS011;56665;41.106;16.688;2023-12-28T14:29:29;46.20;;;22.60;;
69463;SDS011;56665;41.106;16.688;2023-12-28T14:32:33;42.88;;;19.50;;
69463;SDS011;56665;41.106;16.688;2023-12-28T14:35:36;48.10;;;22.50;;
69463;SDS011;56665;41.106;16.688;2023-12-28T14:38:42;35.70;;;17.75;;
69463;SDS011;56665;41.106;16.688;2023-12-28T14:41:46;28.65;;;13.55;;
69463;SDS011;56665;41.106;16.688;2023-12-28T14:44:50;33.60;;;15.98;;
69463;SDS011;56665;41.106;16.688;2023-12-28T14:47:54;45.22;;;20.15;;
69463;SDS011;56665;41.106;16.688;2023-12-28T14:50:58;36.60;;;16.63;;
69463;SDS011;56665;41.106;16.688;2023-12-28T14:54:02;25.10;;;12.35;;
69463;SDS011;56665;41.106;16.688;2023-12-28T14:57:06;20.73;;;12.60;;
69463;SDS011;56665;41.106;16.688;2023-12-28T15:00:10;25.35;;;12.77;;
69463;SDS011;56665;41.106;16.688;2023-12-28T15:03:14;27.25;;;13.50;;
69463;SDS011;56665;41.106;16.688;2023-12-28T15:06:19;25.60;;;12.47;;
69463;SDS011;56665;41.106;16.688;2023-12-28T15:09:23;27.20;;;14.63;;
69463;SDS011;56665;41.106;16.688;2023-12-28T15:12:27;24.27;;;14.13;;
69463;SDS011;56665;41.106;16.688;2023-12-28T15:15:31;27.92;;;14.45;;
69463;SDS011;56665;41.106;16.688;2023-12-28T15:18:35;23.65;;;13.23;;
69463;SDS011;56665;41.106;16.688;2023-12-28T15:21:40;24.87;;;13.10;;
69463;SDS011;56665;41.106;16.688;2023-12-28T15:24:44;19.50;;;12.68;;
69463;SDS011;56665;41.106;16.688;2023-12-28T15:27:47;34.15;;;18.40;;
69463;SDS011;56665;41.106;16.688;2023-12-28T15:30:52;40.03;;;23.50;;
69463;SDS011;56665;41.106;16.688;2023-12-28T15:33:55;30.38;;;18.73;;
69463;SDS011;56665;41.106;16.688;2023-12-28T15:36:59;29.43;;;16.83;;
69463;SDS011;56665;41.106;16.688;2023-12-28T15:40:03;29.00;;;16.35;;
69463;SDS011;56665;41.106;16.688;2023-12-28T15:43:07;26.90;;;16.35;;
69463;SDS011;56665;41.106;16.688;2023-12-28T15:46:11;30.00;;;16.10;;
69463;SDS011;56665;41.106;16.688;2023-12-28T15:49:15;30.80;;;15.85;;
69463;SDS011;56665;41.106;16.688;2023-12-28T15:52:19;33.63;;;16.77;;
69463;SDS011;56665;41.106;16.688;2023-12-28T15:55:23;44.50;;;21.35;;
69463;SDS011;56665;41.106;16.688;2023-12-28T15:58:27;35.67;;;18.67;;
69463;SDS011;56665;41.106;16.688;2023-12-28T16:01:30;32.35;;;16.98;;
69463;SDS011;56665;41.106;16.688;2023-12-28T16:04:34;30.20;;;16.95;;
69463;SDS011;56665;41.106;16.688;2023-12-28T16:07:39;32.63;;;17.43;;
69463;SDS011;56665;41.106;16.688;2023-12-28T16:10:42;35.65;;;18.92;;
69463;SDS011;56665;41.106;16.688;2023-12-28T16:13:47;33.80;;;18.23;;
69463;SDS011;56665;41.106;16.688;2023-12-28T16:16:50;38.75;;;19.23;;
69463;SDS011;56665;41.106;16.688;2023-12-28T16:19:54;37.25;;;20.98;;
69463;SDS011;56665;41.106;16.688;2023-12-28T16:22:58;37.20;;;22.97;;
69463;SDS011;56665;41.106;16.688;2023-12-28T16:26:02;51.45;;;30.17;;
69463;SDS011;56665;41.106;16.688;2023-12-28T16:29:06;49.15;;;31.80;;
69463;SDS011;56665;41.106;16.688;2023-12-28T16:32:09;59.65;;;36.25;;
69463;SDS011;56665;41.106;16.688;2023-12-28T16:35:13;73.43;;;40.35;;
69463;SDS011;56665;41.106;16.688;2023-12-28T16:38:18;92.43;;;45.77;;
69463;SDS011;56665;41.106;16.688;2023-12-28T16:41:22;110.45;;;52.10;;
69463;SDS011;56665;41.106;16.688;2023-12-28T16:44:25;116.80;;;56.00;;
69463;SDS011;56665;41.106;16.688;2023-12-28T16:47:29;116.57;;;52.55;;
69463;SDS011;56665;41.106;16.688;2023-12-28T16:50:38;134.43;;;61.40;;
69463;SDS011;56665;41.106;16.688;2023-12-28T16:53:43;168.37;;;71.73;;
69463;SDS011;56665;41.106;16.688;2023-12-28T16:56:47;192.45;;;75.80;;
69463;SDS011;56665;41.106;16.688;2023-12-28T16:59:51;228.23;;;89.32;;
69463;SDS011;56665;41.106;16.688;2023-12-28T17:02:55;263.98;;;91.85;;
69463;SDS011;56665;41.106;16.688;2023-12-28T17:05:59;224.43;;;89.15;;
69463;SDS011;56665;41.106;16.688;2023-12-28T17:09:03;172.23;;;69.10;;
69463;SDS011;56665;41.106;16.688;2023-12-28T17:12:18;164.63;;;65.97;;
69463;SDS011;56665;41.106;16.688;2023-12-28T17:15:45;187.38;;;78.68;;
69463;SDS011;56665;41.106;16.688;2023-12-28T17:18:49;153.73;;;63.67;;
69463;SDS011;56665;41.106;16.688;2023-12-28T17:21:52;145.25;;;60.40;;
69463;SDS011;56665;41.106;16.688;2023-12-28T17:25:44;145.50;;;65.30;;
69463;SDS011;56665;41.106;16.688;2023-12-28T17:28:37;127.72;;;55.58;;
69463;SDS011;56665;41.106;16.688;2023-12-28T17:31:54;118.75;;;55.58;;
69463;SDS011;56665;41.106;16.688;2023-12-28T17:35:00;95.15;;;43.47;;
69463;SDS011;56665;41.106;16.688;2023-12-28T17:38:04;95.80;;;40.42;;
69463;SDS011;56665;41.106;16.688;2023-12-28T17:41:09;94.50;;;41.20;;
69463;SDS011;56665;41.106;16.688;2023-12-28T17:44:35;106.93;;;44.58;;
69463;SDS011;56665;41.106;16.688;2023-12-28T17:47:47;116.38;;;51.92;;
69463;SDS011;56665;41.106;16.688;2023-12-28T17:51:07;137.27;;;54.38;;
69463;SDS011;56665;41.106;16.688;2023-12-28T17:54:13;119.05;;;50.53;;
69463;SDS011;56665;41.106;16.688;2023-12-28T17:57:16;109.30;;;45.83;;
69463;SDS011;56665;41.106;16.688;2023-12-28T18:00:20;89.88;;;43.00;;
69463;SDS011;56665;41.106;16.688;2023-12-28T18:03:27;98.88;;;46.17;;
69463;SDS011;56665;41.106;16.688;2023-12-28T18:06:30;98.07;;;45.05;;
69463;SDS011;56665;41.106;16.688;2023-12-28T18:09:34;88.53;;;39.15;;
69463;SDS011;56665;41.106;16.688;2023-12-28T18:12:43;75.37;;;35.07;;
69463;SDS011;56665;41.106;16.688;2023-12-28T18:15:47;81.95;;;38.47;;
69463;SDS011;56665;41.106;16.688;2023-12-28T18:18:50;78.93;;;39.28;;
69463;SDS011;56665;41.106;16.688;2023-12-28T18:21:55;72.32;;;32.05;;
69463;SDS011;56665;41.106;16.688;2023-12-28T18:24:59;69.97;;;30.98;;
69463;SDS011;56665;41.106;16.688;2023-12-28T18:28:03;52.93;;;28.13;;
69463;SDS011;56665;41.106;16.688;2023-12-28T18:31:07;50.15;;;24.50;;
69463;SDS011;56665;41.106;16.688;2023-12-28T18:34:11;57.67;;;25.00;;
69463;SDS011;56665;41.106;16.688;2023-12-28T18:37:15;53.58;;;25.08;;
69463;SDS011;56665;41.106;16.688;2023-12-28T18:40:20;54.13;;;26.77;;
69463;SDS011;56665;41.106;16.688;2023-12-28T18:43:24;65.83;;;29.00;;
69463;SDS011;56665;41.106;16.688;2023-12-28T18:46:28;66.43;;;28.48;;
69463;SDS011;56665;41.106;16.688;2023-12-28T18:49:32;66.88;;;28.13;;
69463;SDS011;56665;41.106;16.688;2023-12-28T18:52:36;76.57;;;31.75;;
69463;SDS011;56665;41.106;16.688;2023-12-28T18:55:41;65.80;;;27.75;;
69463;SDS011;56665;41.106;16.688;2023-12-28T18:58:45;63.53;;;26.83;;
69463;SDS011;56665;41.106;16.688;2023-12-28T19:01:48;56.67;;;25.10;;
69463;SDS011;56665;41.106;16.688;2023-12-28T19:04:55;56.97;;;24.88;;
69463;SDS011;56665;41.106;16.688;2023-12-28T19:07:59;59.65;;;24.27;;
69463;SDS011;56665;41.106;16.688;2023-12-28T19:11:03;54.08;;;23.70;;
69463;SDS011;56665;41.106;16.688;2023-12-28T19:14:07;54.07;;;25.10;;
69463;SDS011;56665;41.106;16.688;2023-12-28T19:17:10;63.65;;;27.40;;
69463;SDS011;56665;41.106;16.688;2023-12-28T19:20:14;66.72;;;28.27;;
69463;SDS011;56665;41.106;16.688;2023-12-28T19:23:18;66.63;;;28.60;;
69463;SDS011;56665;41.106;16.688;2023-12-28T19:26:22;66.32;;;28.35;;
69463;SDS011;56665;41.106;16.688;2023-12-28T19:29:25;68.23;;;30.33;;
69463;SDS011;56665;41.106;16.688;2023-12-28T19:32:29;74.95;;;32.03;;
69463;SDS011;56665;41.106;16.688;2023-12-28T19:35:33;69.88;;;31.02;;
69463;SDS011;56665;41.106;16.688;2023-12-28T19:38:38;65.90;;;30.63;;
69463;SDS011;56665;41.106;16.688;2023-12-28T19:41:42;77.82;;;36.05;;
69463;SDS011;56665;41.106;16.688;2023-12-28T19:44:46;82.23;;;38.80;;
69463;SDS011;56665;41.106;16.688;2023-12-28T19:47:50;81.47;;;36.67;;
69463;SDS011;56665;41.106;16.688;2023-12-28T19:50:53;69.97;;;32.53;;
69463;SDS011;56665;41.106;16.688;2023-12-28T19:53:57;82.82;;;34.55;;
69463;SDS011;56665;41.106;16.688;2023-12-28T19:57:01;84.07;;;38.67;;
69463;SDS011;56665;41.106;16.688;2023-12-28T20:00:06;71.87;;;31.37;;
69463;SDS011;56665;41.106;16.688;2023-12-28T20:03:10;59.22;;;24.50;;
69463;SDS011;56665;41.106;16.688;2023-12-28T20:06:13;46.33;;;22.23;;
69463;SDS011;56665;41.106;16.688;2023-12-28T20:09:17;48.20;;;24.23;;
69463;SDS011;56665;41.106;16.688;2023-12-28T20:12:21;63.10;;;28.73;;
69463;SDS011;56665;41.106;16.688;2023-12-28T20:15:25;62.10;;;27.87;;